Time;durP1;ratioP1;P1;durP2;ratioP2;P2;SDS_P1;SDS_P2;PMS_P1;PMS_P2;Temp;Humidity;BMP_temperature;BMP_pressure;BME280_temperature;BME280_humidity;BME280_pressure;Samples;Min_cycle;Max_cycle;Signal;HPM_P1;HPM_P2
2021/05/18 00:01:04;;;;;;;;;;;;;;;15.91;100.00;99031.95;1638763;87;20171;-82
2021/05/18 00:03:30;;;;;;;;;;;;;;;15.91;100.00;99034.67;1638048;88;20207;-80
2021/05/18 00:05:59;;;;;;;;;;;;;;;15.89;100.00;99030.81;1638528;88;20159;-80
2021/05/18 00:08:26;;;;;;;;;;;;;;;15.87;100.00;99035.67;1638521;88;20195;-81
2021/05/18 00:13:46;;;;;;;;;;;;;;;15.83;100.00;99037.71;1611324;89;20177;-82
2021/05/18 00:16:13;;;;;;;;;;;;;;;15.80;100.00;99028.11;1611556;89;20225;-82
2021/05/18 00:18:40;;;;;;;;;;;;;;;15.77;100.00;99026.37;1611921;89;20134;-82
2021/05/18 00:21:07;;;;;;;;;;;;;;;15.77;100.00;99025.84;1611829;89;20178;-82
2021/05/18 00:23:35;;;;;;;;;;;;;;;15.75;100.00;99019.25;1611935;89;20177;-83
2021/05/18 00:26:02;;;;;;;;;;;;;;;15.74;100.00;99020.81;1614655;86;20185;-82
2021/05/18 00:28:29;;;;;;;;;;;;;;;15.71;100.00;99017.20;1667295;86;20157;-84
2021/05/18 00:30:56;;;;;;;;;;;;;;;15.69;100.00;99016.61;1667381;86;20189;-83
2021/05/18 00:33:23;;;;;;;;;;;;;;;15.69;100.00;99020.16;1667349;85;20118;-82
2021/05/18 00:35:50;;;;;;;;;;;;;;;15.68;100.00;99023.92;1667255;85;20118;-82
2021/05/18 00:38:18;;;;;;;;;;;;;;;15.68;100.00;99015.75;1667500;85;20174;-82
2021/05/18 00:40:47;;;;;;;;;;;;;;;15.69;100.00;99016.06;1666874;84;20141;-84
2021/05/18 00:43:14;;;;;;;;;;;;;;;15.70;100.00;99023.70;1665763;86;20198;-84
2021/05/18 00:45:49;;;;;;;;;;;;;;;15.70;100.00;99025.06;1666221;86;20216;-82
2021/05/18 00:48:17;;;;;;;;;;;;;;;15.69;100.00;99026.14;1618610;89;20149;-84
2021/05/18 00:50:51;;;;;;;;;;;;;;;15.68;100.00;99028.55;1619067;88;20152;-83
2021/05/18 00:53:21;;;;;;;;;;;;;;;15.67;100.00;99025.52;1605721;89;20199;-83
2021/05/18 00:58:27;;;;;;;;;;;;;;;15.64;100.00;99021.91;1457307;95;20167;-83
2021/05/18 01:01:06;;;;;;;;;;;;;;;15.62;100.00;99033.57;1481789;97;20169;-84
2021/05/18 01:03:34;;;;;;;;;;;;;;;15.62;100.00;99028.13;1480440;97;20257;-83
2021/05/18 01:06:21;;;;;;;;;;;;;;;15.60;100.00;99007.91;1480826;97;20209;-83
2021/05/18 01:08:55;;;;;;;;;;;;;;;15.60;100.00;99006.55;1480421;97;20199;-83
2021/05/18 01:14:43;;;;;;;;;;;;;;;15.58;100.00;99010.01;1504375;92;20197;-83
2021/05/18 01:17:22;;;;;;;;;;;;;;;15.58;100.00;99004.55;1524241;93;20189;-84
2021/05/18 01:22:54;;;;;;;;;;;;;;;15.57;100.00;99024.70;1535345;91;20155;-84
2021/05/18 01:25:31;;;;;;;;;;;;;;;15.57;100.00;99024.17;1534952;89;20234;-83
2021/05/18 01:28:14;;;;;;;;;;;;;;;15.59;100.00;99032.66;1537599;94;20160;-83
2021/05/18 01:40:18;;;;;;;;;;;;;;;15.51;100.00;99036.00;1471113;94;20209;-81
2021/05/18 01:42:49;;;;;;;;;;;;;;;15.53;100.00;99041.22;1446416;98;20289;-83
2021/05/18 01:45:16;;;;;;;;;;;;;;;15.52;100.00;99044.45;1420403;101;20170;-83
2021/05/18 01:47:53;;;;;;;;;;;;;;;15.53;100.00;99057.03;1454654;99;20270;-86
2021/05/18 01:50:24;;;;;;;;;;;;;;;15.55;100.00;99058.98;1452497;99;20169;-83
2021/05/18 01:52:54;;;;;;;;;;;;;;;15.56;100.00;99059.81;1453952;99;20208;-83
2021/05/18 01:57:53;;;;;;;;;;;;;;;15.57;100.00;99067.77;1541543;89;20130;-82
2021/05/18 02:00:36;;;;;;;;;;;;;;;15.58;100.00;99069.95;1614613;89;20190;-83
2021/05/18 02:03:05;;;;;;;;;;;;;;;15.60;100.00;99077.90;1611886;89;20189;-83
2021/05/18 02:05:40;;;;;;;;;;;;;;;15.59;100.00;99072.98;1614557;89;20205;-81
2021/05/18 02:08:28;;;;;;;;;;;;;;;15.60;100.00;99069.22;1611886;87;20264;-82
2021/05/18 02:11:23;;;;;;;;;;;;;;;15.60;100.00;99068.36;1659885;87;20124;-80
2021/05/18 02:13:53;;;;;;;;;;;;;;;15.58;100.00;99067.22;1659702;86;20154;-81
2021/05/18 02:16:33;;;;;;;;;;;;;;;15.55;100.00;99069.89;1656683;87;20122;-82
2021/05/18 02:31:26;;;;;;;;;;;;;;;15.49;100.00;99077.63;1648839;81;20222;-81
2021/05/18 02:34:00;;;;;;;;;;;;;;;15.47;100.00;99080.25;1621704;85;20169;-83
2021/05/18 03:01:13;;;;;;;;;;;;;;;15.45;100.00;99093.27;1707280;81;20170;31
2021/05/18 03:03:40;;;;;;;;;;;;;;;15.41;100.00;99095.61;1701131;85;20110;-79
2021/05/18 03:06:17;;;;;;;;;;;;;;;15.40;100.00;99095.84;1701518;85;20166;-82
2021/05/18 03:09:00;;;;;;;;;;;;;;;15.38;100.00;99098.24;1700740;85;20142;-83
2021/05/18 03:11:36;;;;;;;;;;;;;;;15.35;100.00;99090.55;1676559;86;20168;-83
2021/05/18 03:14:06;;;;;;;;;;;;;;;15.33;100.00;99095.39;1644705;86;20234;-80
2021/05/18 03:16:32;;;;;;;;;;;;;;;15.29;100.00;99091.43;1644139;87;20208;-80
2021/05/18 03:19:01;;;;;;;;;;;;;;;15.30;100.00;99086.84;1644359;87;20183;-82
2021/05/18 03:21:31;;;;;;;;;;;;;;;15.27;100.00;99093.55;1666438;84;20107;-81
2021/05/18 03:24:02;;;;;;;;;;;;;;;15.29;100.00;99091.43;1703698;83;20123;-83
2021/05/18 03:26:29;;;;;;;;;;;;;;;15.28;100.00;99094.37;1703648;84;20165;-83
2021/05/18 03:34:28;;;;;;;;;;;;;;;15.30;100.00;99099.91;1647699;87;20227;-81
2021/05/18 03:36:56;;;;;;;;;;;;;;;15.31;100.00;99093.94;1648153;86;20263;-83
2021/05/18 03:39:29;;;;;;;;;;;;;;;15.28;100.00;99093.87;1648878;87;20144;-81
2021/05/18 03:42:06;;;;;;;;;;;;;;;15.30;100.00;99089.56;1655380;85;20208;-83
2021/05/18 03:58:37;;;;;;;;;;;;;;;15.17;100.00;99089.14;1697166;84;20178;-82
2021/05/18 04:03:52;;;;;;;;;;;;;;;15.15;100.00;99083.91;1744354;82;20135;-80
2021/05/18 04:17:24;;;;;;;;;;;;;;;15.21;100.00;99069.95;1729591;82;20168;-82
2021/05/18 04:22:37;;;;;;;;;;;;;;;15.28;100.00;99073.95;1730179;82;20215;-76
2021/05/18 04:52:17;;;;;;;;;;;;;;;15.30;100.00;99085.47;1641045;88;20248;-83
2021/05/18 05:15:43;;;;;;;;;;;;;;;15.50;100.00;99077.91;1584074;91;20194;-82
2021/05/18 05:18:10;;;;;;;;;;;;;;;15.53;100.00;99075.27;1577106;91;20161;-79
2021/05/18 05:20:47;;;;;;;;;;;;;;;15.57;100.00;99079.20;1577391;90;20255;-80
2021/05/18 05:23:16;;;;;;;;;;;;;;;15.61;100.00;99078.22;1580637;91;20274;-79
2021/05/18 05:25:47;;;;;;;;;;;;;;;15.63;100.00;99080.17;1587188;89;20234;-83
2021/05/18 05:28:32;;;;;;;;;;;;;;;15.65;100.00;99064.42;1586955;91;20174;-80
2021/05/18 05:31:08;;;;;;;;;;;;;;;15.77;100.00;99065.36;1586720;89;20211;-84
2021/05/18 05:33:35;;;;;;;;;;;;;;;15.91;100.00;99066.84;1584501;91;20160;-84
2021/05/18 05:36:05;;;;;;;;;;;;;;;16.01;100.00;99065.49;1583220;91;20208;-79
2021/05/18 05:38:34;;;;;;;;;;;;;;;16.11;100.00;99062.52;1583123;89;20244;-78
2021/05/18 05:41:01;;;;;;;;;;;;;;;16.13;100.00;99064.47;1633725;88;20194;-84
2021/05/18 05:43:30;;;;;;;;;;;;;;;16.14;100.00;99059.30;1640371;88;20203;-80
2021/05/18 05:45:58;;;;;;;;;;;;;;;16.15;100.00;99054.70;1666130;86;20201;-80
2021/05/18 05:48:27;;;;;;;;;;;;;;;16.18;100.00;99053.39;1703698;84;20209;-83
2021/05/18 05:50:54;;;;;;;;;;;;;;;16.20;100.00;99048.02;1703772;84;20162;-80
2021/05/18 05:53:22;;;;;;;;;;;;;;;16.21;100.00;99056.48;1703487;84;20291;-87
2021/05/18 05:55:52;;;;;;;;;;;;;;;16.22;100.00;99054.58;1703142;84;20162;-88
2021/05/18 05:58:22;;;;;;;;;;;;;;;16.25;100.00;99060.95;1703027;84;20153;-78
2021/05/18 06:00:49;;;;;;;;;;;;;;;16.18;100.00;99046.58;1702730;84;20199;-78
2021/05/18 06:03:18;;;;;;;;;;;;;;;16.17;100.00;99044.39;1660786;85;20231;-81
2021/05/18 06:05:46;;;;;;;;;;;;;;;16.18;100.00;99041.12;1665020;84;20516;-82
2021/05/18 06:08:13;;;;;;;;;;;;;;;16.25;100.00;99048.13;1670117;84;20172;-81
2021/05/18 06:10:43;;;;;;;;;;;;;;;16.36;100.00;99045.17;1664586;84;20178;-73
2021/05/18 06:37:39;;;;;;;;;;;;;;;16.43;100.00;99033.62;1681202;84;20217;-73
2021/05/18 06:42:46;;;;;;;;;;;;;;;16.40;100.00;99040.08;1687003;84;20209;-73
2021/05/18 06:47:57;;;;;;;;;;;;;;;16.42;100.00;99033.30;1655763;86;20275;-74
2021/05/18 06:50:30;;;;;;;;;;;;;;;16.40;100.00;99035.44;1657384;86;20183;-73
2021/05/18 06:52:57;;;;;;;;;;;;;;;16.44;100.00;99044.81;1667626;84;20202;-74
2021/05/18 06:55:28;;;;;;;;;;;;;;;16.50;100.00;99043.89;1699550;83;20142;-72
2021/05/18 06:58:00;;;;;;;;;;;;;;;16.49;100.00;99040.85;1729029;82;20218;-74
2021/05/18 07:00:23;;;;;;;;;;;;;;;16.50;100.00;99032.13;1695641;84;20171;-73
2021/05/18 07:02:51;;;;;;;;;;;;;;;16.53;100.00;99034.39;1723252;83;20163;-73
2021/05/18 07:10:35;;;;;;;;;;;;;;;17.05;100.00;99017.36;1796151;78;20210;-74
2021/05/18 07:13:02;;;;;;;;;;;;;;;17.57;100.00;99007.02;1795627;80;20162;-74
2021/05/18 07:15:30;;;;;;;;;;;;;;;18.01;100.00;98994.51;1795011;80;20507;-75
2021/05/18 07:17:57;;;;;;;;;;;;;;;18.20;100.00;98991.55;1795000;80;20395;-73
2021/05/18 07:20:26;;;;;;;;;;;;;;;18.25;100.00;98987.53;1792443;80;20163;-76
2021/05/18 07:22:55;;;;;;;;;;;;;;;18.33;100.00;98981.66;1783534;80;20151;-76
2021/05/18 07:25:21;;;;;;;;;;;;;;;18.57;100.00;98981.49;1778586;80;20193;-77
2021/05/18 07:27:48;;;;;;;;;;;;;;;19.04;100.00;98981.70;1767899;78;20237;-71
2021/05/18 07:30:15;;;;;;;;;;;;;;;19.33;100.00;98968.09;1812780;78;20178;-74
2021/05/18 07:32:43;;;;;;;;;;;;;;;19.52;100.00;98965.05;1795652;80;20170;-77
2021/05/18 07:35:11;;;;;;;;;;;;;;;19.78;100.00;98956.61;1778983;78;20161;-77
2021/05/18 07:37:38;;;;;;;;;;;;;;;20.21;100.00;98954.82;1759168;82;20146;-75
2021/05/18 07:40:07;;;;;;;;;;;;;;;20.56;100.00;98949.34;1780203;80;20230;-73
2021/05/18 07:42:34;;;;;;;;;;;;;;;20.89;100.00;98952.06;1769063;80;20463;-79
2021/05/18 07:45:01;;;;;;;;;;;;;;;21.19;100.00;98950.02;1773975;80;20175;-79
2021/05/18 07:47:34;;;;;;;;;;;;;;;21.19;100.00;98937.10;1782513;80;20172;-80
2021/05/18 08:06:58;;;;;;;;;;;;;;;21.32;100.00;98919.31;1505214;95;20145;-81
2021/05/18 08:09:26;;;;;;;;;;;;;;;21.27;100.00;98923.97;1515341;95;20624;-81
2021/05/18 08:11:53;;;;;;;;;;;;;;;21.40;100.00;98918.77;1515130;95;20212;-81
